sensor_id;sensor_type;location;lat;lon;timestamp;P1;durP1;ratioP1;P2;durP2;ratioP2
9288;SDS011;4683;50.864;12.086;2022-07-25T00:00:14;5.73;;;3.97;;
9288;SDS011;4683;50.864;12.086;2022-07-25T00:02:43;4.47;;;3.70;;
9288;SDS011;4683;50.864;12.086;2022-07-25T00:05:11;5.00;;;3.80;;
9288;SDS011;4683;50.864;12.086;2022-07-25T00:07:40;4.03;;;3.70;;
9288;SDS011;4683;50.864;12.086;2022-07-25T00:10:09;4.17;;;3.87;;
9288;SDS011;4683;50.864;12.086;2022-07-25T00:12:37;4.57;;;4.17;;
9288;SDS011;4683;50.864;12.086;2022-07-25T00:15:07;5.20;;;4.70;;
9288;SDS011;4683;50.864;12.086;2022-07-25T00:17:37;4.83;;;4.33;;
9288;SDS011;4683;50.864;12.086;2022-07-25T00:20:07;4.73;;;4.33;;
9288;SDS011;4683;50.864;12.086;2022-07-25T00:22:39;4.90;;;4.07;;
9288;SDS011;4683;50.864;12.086;2022-07-25T00:25:08;5.03;;;3.97;;
9288;SDS011;4683;50.864;12.086;2022-07-25T00:27:36;5.43;;;4.93;;
9288;SDS011;4683;50.864;12.086;2022-07-25T00:30:05;4.67;;;4.17;;
9288;SDS011;4683;50.864;12.086;2022-07-25T00:32:34;6.53;;;5.47;;
9288;SDS011;4683;50.864;12.086;2022-07-25T00:35:05;5.47;;;4.97;;
9288;SDS011;4683;50.864;12.086;2022-07-25T00:37:34;4.97;;;4.47;;
9288;SDS011;4683;50.864;12.086;2022-07-25T00:40:02;7.00;;;4.40;;
9288;SDS011;4683;50.864;12.086;2022-07-25T01:44:32;5.33;;;4.83;;
9288;SDS011;4683;50.864;12.086;2022-07-25T01:47:00;5.37;;;4.77;;
9288;SDS011;4683;50.864;12.086;2022-07-25T01:49:29;6.43;;;4.33;;
9288;SDS011;4683;50.864;12.086;2022-07-25T01:51:57;4.80;;;4.33;;
9288;SDS011;4683;50.864;12.086;2022-07-25T01:54:26;4.90;;;4.50;;
9288;SDS011;4683;50.864;12.086;2022-07-25T01:56:54;5.23;;;4.73;;
9288;SDS011;4683;50.864;12.086;2022-07-25T01:59:22;6.33;;;4.90;;
9288;SDS011;4683;50.864;12.086;2022-07-25T02:01:53;6.57;;;5.10;;
9288;SDS011;4683;50.864;12.086;2022-07-25T02:04:21;7.63;;;5.40;;
9288;SDS011;4683;50.864;12.086;2022-07-25T02:06:49;5.50;;;5.00;;
9288;SDS011;4683;50.864;12.086;2022-07-25T02:09:18;5.47;;;4.97;;
9288;SDS011;4683;50.864;12.086;2022-07-25T02:11:46;5.27;;;4.87;;
9288;SDS011;4683;50.864;12.086;2022-07-25T02:14:14;5.37;;;4.87;;
9288;SDS011;4683;50.864;12.086;2022-07-25T02:16:42;5.40;;;5.00;;
9288;SDS011;4683;50.864;12.086;2022-07-25T02:19:12;5.10;;;4.60;;
9288;SDS011;4683;50.864;12.086;2022-07-25T02:21:41;5.67;;;5.10;;
9288;SDS011;4683;50.864;12.086;2022-07-25T02:24:09;5.27;;;4.87;;
9288;SDS011;4683;50.864;12.086;2022-07-25T02:26:37;5.60;;;5.00;;
9288;SDS011;4683;50.864;12.086;2022-07-25T02:29:06;5.20;;;4.80;;
9288;SDS011;4683;50.864;12.086;2022-07-25T02:31:34;5.67;;;5.17;;
9288;SDS011;4683;50.864;12.086;2022-07-25T02:34:02;5.83;;;5.40;;
9288;SDS011;4683;50.864;12.086;2022-07-25T02:36:33;5.83;;;5.20;;
9288;SDS011;4683;50.864;12.086;2022-07-25T02:39:01;5.87;;;5.37;;
9288;SDS011;4683;50.864;12.086;2022-07-25T02:41:29;6.00;;;5.50;;
9288;SDS011;4683;50.864;12.086;2022-07-25T02:43:57;6.10;;;5.60;;
9288;SDS011;4683;50.864;12.086;2022-07-25T02:46:25;7.90;;;5.87;;
9288;SDS011;4683;50.864;12.086;2022-07-25T02:48:58;6.20;;;5.70;;
9288;SDS011;4683;50.864;12.086;2022-07-25T02:51:26;6.33;;;5.77;;
9288;SDS011;4683;50.864;12.086;2022-07-25T02:53:55;7.10;;;6.50;;
9288;SDS011;4683;50.864;12.086;2022-07-25T02:56:24;8.37;;;5.83;;
9288;SDS011;4683;50.864;12.086;2022-07-25T02:58:52;7.17;;;6.57;;
9288;SDS011;4683;50.864;12.086;2022-07-25T03:01:20;6.70;;;6.10;;
9288;SDS011;4683;50.864;12.086;2022-07-25T03:03:49;6.40;;;5.80;;
9288;SDS011;4683;50.864;12.086;2022-07-25T03:06:17;7.13;;;6.53;;
9288;SDS011;4683;50.864;12.086;2022-07-25T03:08:45;6.50;;;6.00;;
9288;SDS011;4683;50.864;12.086;2022-07-25T03:11:16;6.87;;;6.30;;
9288;SDS011;4683;50.864;12.086;2022-07-25T03:13:44;6.63;;;6.10;;
9288;SDS011;4683;50.864;12.086;2022-07-25T03:16:12;7.33;;;6.53;;
9288;SDS011;4683;50.864;12.086;2022-07-25T03:18:42;7.13;;;6.47;;
9288;SDS011;4683;50.864;12.086;2022-07-25T03:21:10;7.37;;;6.77;;
9288;SDS011;4683;50.864;12.086;2022-07-25T03:23:38;6.83;;;6.23;;
9288;SDS011;4683;50.864;12.086;2022-07-25T03:26:06;7.80;;;6.67;;
9288;SDS011;4683;50.864;12.086;2022-07-25T03:28:36;7.10;;;6.50;;
9288;SDS011;4683;50.864;12.086;2022-07-25T03:31:04;7.53;;;6.83;;
9288;SDS011;4683;50.864;12.086;2022-07-25T03:33:33;7.73;;;7.03;;
9288;SDS011;4683;50.864;12.086;2022-07-25T03:36:01;7.53;;;6.83;;
9288;SDS011;4683;50.864;12.086;2022-07-25T03:38:30;7.77;;;7.07;;
9288;SDS011;4683;50.864;12.086;2022-07-25T03:40:59;7.30;;;6.70;;
9288;SDS011;4683;50.864;12.086;2022-07-25T03:43:27;7.70;;;7.00;;
9288;SDS011;4683;50.864;12.086;2022-07-25T03:45:58;7.57;;;6.97;;
9288;SDS011;4683;50.864;12.086;2022-07-25T03:48:26;7.93;;;7.17;;
9288;SDS011;4683;50.864;12.086;2022-07-25T03:50:54;8.47;;;7.60;;
9288;SDS011;4683;50.864;12.086;2022-07-25T03:53:23;8.63;;;7.37;;
9288;SDS011;4683;50.864;12.086;2022-07-25T03:55:51;7.80;;;7.10;;
9288;SDS011;4683;50.864;12.086;2022-07-25T03:58:19;8.10;;;7.40;;
9288;SDS011;4683;50.864;12.086;2022-07-25T04:00:48;8.37;;;7.67;;
9288;SDS011;4683;50.864;12.086;2022-07-25T04:03:17;8.13;;;7.23;;
9288;SDS011;4683;50.864;12.086;2022-07-25T04:05:46;7.93;;;7.00;;
9288;SDS011;4683;50.864;12.086;2022-07-25T04:08:14;8.13;;;7.43;;
9288;SDS011;4683;50.864;12.086;2022-07-25T04:10:42;7.80;;;7.10;;
9288;SDS011;4683;50.864;12.086;2022-07-25T04:13:12;8.87;;;8.10;;
9288;SDS011;4683;50.864;12.086;2022-07-25T04:15:40;7.80;;;7.00;;
9288;SDS011;4683;50.864;12.086;2022-07-25T04:18:10;8.40;;;7.70;;
9288;SDS011;4683;50.864;12.086;2022-07-25T04:20:40;8.13;;;7.33;;
9288;SDS011;4683;50.864;12.086;2022-07-25T04:23:08;7.73;;;7.07;;
9288;SDS011;4683;50.864;12.086;2022-07-25T04:25:36;8.90;;;8.07;;
9288;SDS011;4683;50.864;12.086;2022-07-25T04:28:05;8.07;;;7.37;;
9288;SDS011;4683;50.864;12.086;2022-07-25T04:30:33;8.83;;;7.90;;
9288;SDS011;4683;50.864;12.086;2022-07-25T04:33:01;9.13;;;8.20;;
9288;SDS011;4683;50.864;12.086;2022-07-25T04:35:29;9.10;;;8.17;;
9288;SDS011;4683;50.864;12.086;2022-07-25T04:38:00;9.33;;;8.13;;
9288;SDS011;4683;50.864;12.086;2022-07-25T04:40:28;9.13;;;8.13;;
9288;SDS011;4683;50.864;12.086;2022-07-25T04:42:57;8.37;;;7.57;;
9288;SDS011;4683;50.864;12.086;2022-07-25T04:45:26;8.37;;;7.67;;
9288;SDS011;4683;50.864;12.086;2022-07-25T04:47:54;8.67;;;7.80;;
9288;SDS011;4683;50.864;12.086;2022-07-25T04:50:23;9.97;;;7.63;;
9288;SDS011;4683;50.864;12.086;2022-07-25T04:52:51;8.20;;;7.50;;
9288;SDS011;4683;50.864;12.086;2022-07-25T04:55:20;8.37;;;7.67;;
9288;SDS011;4683;50.864;12.086;2022-07-25T04:57:50;9.03;;;8.13;;
9288;SDS011;4683;50.864;12.086;2022-07-25T05:00:18;8.47;;;7.67;;
9288;SDS011;4683;50.864;12.086;2022-07-25T05:02:48;10.03;;;8.70;;
9288;SDS011;4683;50.864;12.086;2022-07-25T05:05:18;8.50;;;7.60;;
9288;SDS011;4683;50.864;12.086;2022-07-25T05:07:47;9.17;;;8.03;;
9288;SDS011;4683;50.864;12.086;2022-07-25T05:10:16;8.70;;;7.90;;
9288;SDS011;4683;50.864;12.086;2022-07-25T05:12:45;8.40;;;7.70;;
9288;SDS011;4683;50.864;12.086;2022-07-25T05:15:14;8.30;;;7.50;;
9288;SDS011;4683;50.864;12.086;2022-07-25T05:17:42;9.40;;;7.73;;
9288;SDS011;4683;50.864;12.086;2022-07-25T05:20:10;9.20;;;8.30;;
9288;SDS011;4683;50.864;12.086;2022-07-25T05:22:39;9.20;;;8.27;;
9288;SDS011;4683;50.864;12.086;2022-07-25T05:25:09;8.60;;;7.83;;
9288;SDS011;4683;50.864;12.086;2022-07-25T05:27:38;8.87;;;7.83;;
9288;SDS011;4683;50.864;12.086;2022-07-25T05:30:09;8.50;;;7.80;;
9288;SDS011;4683;50.864;12.086;2022-07-25T05:32:40;9.37;;;8.17;;
9288;SDS011;4683;50.864;12.086;2022-07-25T05:35:08;12.73;;;11.43;;
9288;SDS011;4683;50.864;12.086;2022-07-25T05:37:37;9.53;;;8.47;;
9288;SDS011;4683;50.864;12.086;2022-07-25T05:40:06;9.47;;;8.57;;
9288;SDS011;4683;50.864;12.086;2022-07-25T05:42:35;8.73;;;7.93;;
9288;SDS011;4683;50.864;12.086;2022-07-25T05:45:04;9.03;;;8.30;;
9288;SDS011;4683;50.864;12.086;2022-07-25T05:47:35;8.90;;;7.83;;
9288;SDS011;4683;50.864;12.086;2022-07-25T05:50:06;9.20;;;8.40;;
9288;SDS011;4683;50.864;12.086;2022-07-25T05:52:36;8.80;;;8.00;;
9288;SDS011;4683;50.864;12.086;2022-07-25T05:55:04;9.20;;;8.40;;
9288;SDS011;4683;50.864;12.086;2022-07-25T05:57:34;8.00;;;7.30;;
9288;SDS011;4683;50.864;12.086;2022-07-25T06:00:03;10.47;;;9.47;;
9288;SDS011;4683;50.864;12.086;2022-07-25T06:02:34;10.07;;;9.27;;
9288;SDS011;4683;50.864;12.086;2022-07-25T06:05:03;9.33;;;8.53;;
9288;SDS011;4683;50.864;12.086;2022-07-25T06:07:32;8.53;;;7.83;;
9288;SDS011;4683;50.864;12.086;2022-07-25T06:10:03;8.40;;;7.80;;
9288;SDS011;4683;50.864;12.086;2022-07-25T06:12:32;8.17;;;7.43;;
9288;SDS011;4683;50.864;12.086;2022-07-25T06:15:03;8.67;;;7.97;;
9288;SDS011;4683;50.864;12.086;2022-07-25T06:17:34;8.73;;;7.93;;
9288;SDS011;4683;50.864;12.086;2022-07-25T06:20:03;8.47;;;7.87;;
9288;SDS011;4683;50.864;12.086;2022-07-25T06:22:32;9.47;;;8.60;;
9288;SDS011;4683;50.864;12.086;2022-07-25T06:25:03;8.53;;;7.83;;
9288;SDS011;4683;50.864;12.086;2022-07-25T06:27:32;8.97;;;8.17;;
9288;SDS011;4683;50.864;12.086;2022-07-25T06:30:01;11.70;;;10.70;;
9288;SDS011;4683;50.864;12.086;2022-07-25T06:32:31;8.67;;;7.83;;
9288;SDS011;4683;50.864;12.086;2022-07-25T06:35:00;7.97;;;7.37;;
9288;SDS011;4683;50.864;12.086;2022-07-25T06:37:29;8.63;;;7.70;;
9288;SDS011;4683;50.864;12.086;2022-07-25T06:39:59;8.47;;;7.47;;
9288;SDS011;4683;50.864;12.086;2022-07-25T06:42:27;8.17;;;7.40;;
9288;SDS011;4683;50.864;12.086;2022-07-25T08:47:40;8.90;;;8.10;;
9288;SDS011;4683;50.864;12.086;2022-07-25T08:50:10;7.87;;;7.37;;
9288;SDS011;4683;50.864;12.086;2022-07-25T08:52:42;7.03;;;6.33;;
9288;SDS011;4683;50.864;12.086;2022-07-25T08:55:16;9.43;;;8.57;;
9288;SDS011;4683;50.864;12.086;2022-07-25T08:57:51;7.60;;;7.03;;
9288;SDS011;4683;50.864;12.086;2022-07-25T09:00:22;8.60;;;7.83;;
9288;SDS011;4683;50.864;12.086;2022-07-25T09:02:53;7.50;;;6.90;;
9288;SDS011;4683;50.864;12.086;2022-07-25T09:05:27;8.13;;;7.53;;
9288;SDS011;4683;50.864;12.086;2022-07-25T09:08:05;6.70;;;6.20;;
9288;SDS011;4683;50.864;12.086;2022-07-25T09:10:36;7.23;;;6.47;;
9288;SDS011;4683;50.864;12.086;2022-07-25T09:13:08;7.43;;;6.73;;
9288;SDS011;4683;50.864;12.086;2022-07-25T09:15:43;7.63;;;7.13;;
9288;SDS011;4683;50.864;12.086;2022-07-25T09:18:13;9.17;;;8.47;;
9288;SDS011;4683;50.864;12.086;2022-07-25T09:20:44;9.27;;;8.60;;
9288;SDS011;4683;50.864;12.086;2022-07-25T09:23:26;8.60;;;7.90;;
9288;SDS011;4683;50.864;12.086;2022-07-25T09:26:00;7.67;;;6.97;;
9288;SDS011;4683;50.864;12.086;2022-07-25T09:28:30;7.13;;;6.60;;
9288;SDS011;4683;50.864;12.086;2022-07-25T09:31:09;7.07;;;6.57;;
9288;SDS011;4683;50.864;12.086;2022-07-25T09:33:43;7.47;;;6.83;;
9288;SDS011;4683;50.864;12.086;2022-07-25T09:36:14;7.40;;;6.90;;
9288;SDS011;4683;50.864;12.086;2022-07-25T09:38:50;8.07;;;7.13;;
9288;SDS011;4683;50.864;12.086;2022-07-25T09:41:18;7.50;;;6.93;;
9288;SDS011;4683;50.864;12.086;2022-07-25T09:43:47;7.90;;;7.30;;
9288;SDS011;4683;50.864;12.086;2022-07-25T10:47:52;7.70;;;7.20;;
9288;SDS011;4683;50.864;12.086;2022-07-25T10:50:21;7.43;;;6.73;;
9288;SDS011;4683;50.864;12.086;2022-07-25T10:52:56;7.33;;;6.73;;
9288;SDS011;4683;50.864;12.086;2022-07-25T10:55:26;7.07;;;6.50;;
9288;SDS011;4683;50.864;12.086;2022-07-25T10:58:00;8.33;;;7.50;;
9288;SDS011;4683;50.864;12.086;2022-07-25T11:00:31;7.57;;;6.87;;
9288;SDS011;4683;50.864;12.086;2022-07-25T11:03:01;7.50;;;6.90;;
9288;SDS011;4683;50.864;12.086;2022-07-25T11:05:30;7.70;;;7.03;;
9288;SDS011;4683;50.864;12.086;2022-07-25T11:08:09;7.17;;;6.57;;
9288;SDS011;4683;50.864;12.086;2022-07-25T11:10:38;7.10;;;6.60;;
9288;SDS011;4683;50.864;12.086;2022-07-25T11:13:08;6.70;;;5.93;;
9288;SDS011;4683;50.864;12.086;2022-07-25T11:15:40;6.90;;;6.30;;
9288;SDS011;4683;50.864;12.086;2022-07-25T11:18:11;6.93;;;6.33;;
9288;SDS011;4683;50.864;12.086;2022-07-25T11:20:40;7.00;;;6.40;;
9288;SDS011;4683;50.864;12.086;2022-07-25T11:23:09;6.80;;;6.27;;
9288;SDS011;4683;50.864;12.086;2022-07-25T11:25:38;6.67;;;6.17;;
9288;SDS011;4683;50.864;12.086;2022-07-25T11:28:08;7.20;;;6.60;;
9288;SDS011;4683;50.864;12.086;2022-07-25T11:30:38;6.47;;;6.07;;
9288;SDS011;4683;50.864;12.086;2022-07-25T11:33:06;7.30;;;6.70;;
9288;SDS011;4683;50.864;12.086;2022-07-25T11:35:36;7.10;;;6.47;;
9288;SDS011;4683;50.864;12.086;2022-07-25T11:38:05;6.67;;;5.97;;
9288;SDS011;4683;50.864;12.086;2022-07-25T11:40:41;6.27;;;5.87;;
9288;SDS011;4683;50.864;12.086;2022-07-25T11:43:17;6.70;;;6.20;;
9288;SDS011;4683;50.864;12.086;2022-07-25T12:47:18;6.80;;;6.30;;
9288;SDS011;4683;50.864;12.086;2022-07-25T12:49:46;6.70;;;6.10;;
9288;SDS011;4683;50.864;12.086;2022-07-25T12:52:14;6.43;;;5.90;;
9288;SDS011;4683;50.864;12.086;2022-07-25T12:54:43;6.47;;;5.87;;
9288;SDS011;4683;50.864;12.086;2022-07-25T12:57:13;6.77;;;6.17;;
9288;SDS011;4683;50.864;12.086;2022-07-25T12:59:41;6.63;;;6.03;;
9288;SDS011;4683;50.864;12.086;2022-07-25T13:02:09;6.57;;;6.07;;
9288;SDS011;4683;50.864;12.086;2022-07-25T13:04:39;7.03;;;6.50;;
9288;SDS011;4683;50.864;12.086;2022-07-25T13:07:07;7.23;;;6.60;;
9288;SDS011;4683;50.864;12.086;2022-07-25T13:09:35;8.03;;;7.37;;
9288;SDS011;4683;50.864;12.086;2022-07-25T13:12:05;8.43;;;7.73;;
9288;SDS011;4683;50.864;12.086;2022-07-25T13:14:34;8.77;;;8.13;;
9288;SDS011;4683;50.864;12.086;2022-07-25T13:17:02;8.47;;;7.80;;
9288;SDS011;4683;50.864;12.086;2022-07-25T13:19:31;7.60;;;6.90;;
9288;SDS011;4683;50.864;12.086;2022-07-25T13:22:01;8.50;;;7.70;;
9288;SDS011;4683;50.864;12.086;2022-07-25T13:24:29;7.77;;;7.07;;
9288;SDS011;4683;50.864;12.086;2022-07-25T13:27:01;7.70;;;7.07;;
9288;SDS011;4683;50.864;12.086;2022-07-25T13:29:30;7.10;;;6.60;;
9288;SDS011;4683;50.864;12.086;2022-07-25T13:31:59;6.77;;;6.17;;
9288;SDS011;4683;50.864;12.086;2022-07-25T13:34:28;6.60;;;6.10;;
9288;SDS011;4683;50.864;12.086;2022-07-25T13:36:56;6.37;;;5.87;;
9288;SDS011;4683;50.864;12.086;2022-07-25T13:39:26;6.80;;;6.20;;
9288;SDS011;4683;50.864;12.086;2022-07-25T13:41:54;6.83;;;6.30;;
9288;SDS011;4683;50.864;12.086;2022-07-25T13:44:22;7.50;;;6.90;;
9288;SDS011;4683;50.864;12.086;2022-07-25T13:46:52;7.37;;;6.67;;
9288;SDS011;4683;50.864;12.086;2022-07-25T13:49:20;6.97;;;6.47;;
9288;SDS011;4683;50.864;12.086;2022-07-25T13:51:48;7.87;;;7.17;;
9288;SDS011;4683;50.864;12.086;2022-07-25T13:54:17;7.57;;;6.87;;
9288;SDS011;4683;50.864;12.086;2022-07-25T13:56:47;7.23;;;6.70;;
9288;SDS011;4683;50.864;12.086;2022-07-25T13:59:15;7.30;;;6.80;;
9288;SDS011;4683;50.864;12.086;2022-07-25T14:01:44;8.10;;;7.30;;
9288;SDS011;4683;50.864;12.086;2022-07-25T14:04:12;7.43;;;6.93;;
9288;SDS011;4683;50.864;12.086;2022-07-25T14:06:40;7.20;;;6.60;;
9288;SDS011;4683;50.864;12.086;2022-07-25T14:09:21;7.40;;;6.77;;
9288;SDS011;4683;50.864;12.086;2022-07-25T14:11:51;6.77;;;6.27;;
9288;SDS011;4683;50.864;12.086;2022-07-25T14:14:22;7.47;;;6.80;;
9288;SDS011;4683;50.864;12.086;2022-07-25T14:16:51;7.23;;;6.67;;
9288;SDS011;4683;50.864;12.086;2022-07-25T14:19:20;7.10;;;6.47;;
9288;SDS011;4683;50.864;12.086;2022-07-25T14:21:48;7.27;;;6.77;;
9288;SDS011;4683;50.864;12.086;2022-07-25T14:24:17;6.97;;;6.37;;
9288;SDS011;4683;50.864;12.086;2022-07-25T14:26:45;6.47;;;5.97;;
9288;SDS011;4683;50.864;12.086;2022-07-25T14:29:16;6.87;;;6.47;;
9288;SDS011;4683;50.864;12.086;2022-07-25T14:31:45;7.03;;;6.53;;
9288;SDS011;4683;50.864;12.086;2022-07-25T14:34:14;6.75;;;6.25;;
9288;SDS011;4683;50.864;12.086;2022-07-25T14:36:42;6.80;;;6.20;;
9288;SDS011;4683;50.864;12.086;2022-07-25T14:39:12;6.10;;;5.55;;
9288;SDS011;4683;50.864;12.086;2022-07-25T14:41:42;6.47;;;5.97;;
9288;SDS011;4683;50.864;12.086;2022-07-25T14:44:11;6.70;;;6.20;;
9288;SDS011;4683;50.864;12.086;2022-07-25T14:46:41;7.27;;;6.67;;
9288;SDS011;4683;50.864;12.086;2022-07-25T14:49:12;7.00;;;6.50;;
9288;SDS011;4683;50.864;12.086;2022-07-25T14:51:41;6.67;;;6.17;;
9288;SDS011;4683;50.864;12.086;2022-07-25T14:54:11;6.50;;;5.90;;
9288;SDS011;4683;50.864;12.086;2022-07-25T14:56:39;6.97;;;6.47;;
9288;SDS011;4683;50.864;12.086;2022-07-25T14:59:09;6.37;;;5.87;;
9288;SDS011;4683;50.864;12.086;2022-07-25T15:01:38;7.33;;;6.63;;
9288;SDS011;4683;50.864;12.086;2022-07-25T15:04:08;7.43;;;6.80;;
9288;SDS011;4683;50.864;12.086;2022-07-25T15:06:37;6.67;;;6.20;;
9288;SDS011;4683;50.864;12.086;2022-07-25T15:09:06;7.73;;;7.03;;
9288;SDS011;4683;50.864;12.086;2022-07-25T15:11:34;7.07;;;6.57;;
9288;SDS011;4683;50.864;12.086;2022-07-25T15:14:03;7.23;;;6.73;;
9288;SDS011;4683;50.864;12.086;2022-07-25T15:16:32;7.70;;;7.03;;
9288;SDS011;4683;50.864;12.086;2022-07-25T15:19:02;7.30;;;6.80;;
9288;SDS011;4683;50.864;12.086;2022-07-25T15:21:32;7.67;;;7.07;;
9288;SDS011;4683;50.864;12.086;2022-07-25T15:24:02;7.47;;;6.87;;
9288;SDS011;4683;50.864;12.086;2022-07-25T15:26:31;8.43;;;7.73;;
9288;SDS011;4683;50.864;12.086;2022-07-25T15:28:59;7.67;;;6.97;;
9288;SDS011;4683;50.864;12.086;2022-07-25T15:31:28;8.20;;;7.40;;
9288;SDS011;4683;50.864;12.086;2022-07-25T15:33:56;7.63;;;7.13;;
9288;SDS011;4683;50.864;12.086;2022-07-25T15:36:30;7.43;;;6.93;;
9288;SDS011;4683;50.864;12.086;2022-07-25T15:39:01;7.80;;;7.20;;
9288;SDS011;4683;50.864;12.086;2022-07-25T15:41:29;7.57;;;6.97;;
9288;SDS011;4683;50.864;12.086;2022-07-25T15:43:58;7.87;;;7.17;;
9288;SDS011;4683;50.864;12.086;2022-07-25T16:47:58;7.03;;;6.23;;
9288;SDS011;4683;50.864;12.086;2022-07-25T16:50:26;6.93;;;6.20;;
9288;SDS011;4683;50.864;12.086;2022-07-25T16:52:55;7.07;;;6.37;;
9288;SDS011;4683;50.864;12.086;2022-07-25T16:55:23;9.23;;;6.47;;
9288;SDS011;4683;50.864;12.086;2022-07-25T16:57:51;9.07;;;6.23;;
9288;SDS011;4683;50.864;12.086;2022-07-25T17:00:19;7.30;;;6.60;;
9288;SDS011;4683;50.864;12.086;2022-07-25T17:02:48;8.13;;;6.37;;
9288;SDS011;4683;50.864;12.086;2022-07-25T17:05:18;6.63;;;5.60;;
9288;SDS011;4683;50.864;12.086;2022-07-25T17:07:46;7.10;;;6.40;;
9288;SDS011;4683;50.864;12.086;2022-07-25T17:10:15;7.63;;;6.37;;
9288;SDS011;4683;50.864;12.086;2022-07-25T17:12:44;7.87;;;6.70;;
9288;SDS011;4683;50.864;12.086;2022-07-25T17:15:12;6.83;;;6.33;;
9288;SDS011;4683;50.864;12.086;2022-07-25T17:17:40;8.03;;;6.73;;
9288;SDS011;4683;50.864;12.086;2022-07-25T17:20:13;7.67;;;6.87;;
9288;SDS011;4683;50.864;12.086;2022-07-25T17:22:44;6.60;;;6.00;;
9288;SDS011;4683;50.864;12.086;2022-07-25T17:25:12;7.77;;;6.63;;
9288;SDS011;4683;50.864;12.086;2022-07-25T17:27:40;7.87;;;7.13;;
9288;SDS011;4683;50.864;12.086;2022-07-25T17:30:09;7.10;;;6.50;;
9288;SDS011;4683;50.864;12.086;2022-07-25T17:32:38;6.73;;;6.23;;
9288;SDS011;4683;50.864;12.086;2022-07-25T17:35:08;7.83;;;7.03;;
9288;SDS011;4683;50.864;12.086;2022-07-25T17:37:36;7.63;;;6.97;;
9288;SDS011;4683;50.864;12.086;2022-07-25T17:40:10;9.10;;;6.83;;
9288;SDS011;4683;50.864;12.086;2022-07-25T17:42:38;7.37;;;6.57;;
9288;SDS011;4683;50.864;12.086;2022-07-25T17:45:08;7.47;;;6.73;;
9288;SDS011;4683;50.864;12.086;2022-07-25T17:47:37;6.97;;;6.27;;
9288;SDS011;4683;50.864;12.086;2022-07-25T17:50:05;7.60;;;6.83;;
9288;SDS011;4683;50.864;12.086;2022-07-25T17:52:34;6.97;;;6.27;;
9288;SDS011;4683;50.864;12.086;2022-07-25T17:55:05;8.20;;;7.37;;
9288;SDS011;4683;50.864;12.086;2022-07-25T17:57:37;9.40;;;8.20;;
9288;SDS011;4683;50.864;12.086;2022-07-25T18:00:10;11.07;;;7.00;;
9288;SDS011;4683;50.864;12.086;2022-07-25T18:02:39;10.10;;;7.70;;
9288;SDS011;4683;50.864;12.086;2022-07-25T18:05:09;7.57;;;6.87;;
9288;SDS011;4683;50.864;12.086;2022-07-25T18:07:37;7.67;;;6.97;;
9288;SDS011;4683;50.864;12.086;2022-07-25T18:10:10;8.17;;;6.90;;
9288;SDS011;4683;50.864;12.086;2022-07-25T18:12:40;6.73;;;6.20;;
9288;SDS011;4683;50.864;12.086;2022-07-25T18:15:09;7.37;;;6.77;;
9288;SDS011;4683;50.864;12.086;2022-07-25T18:17:40;7.97;;;6.67;;
9288;SDS011;4683;50.864;12.086;2022-07-25T18:20:09;8.10;;;6.73;;
9288;SDS011;4683;50.864;12.086;2022-07-25T18:22:39;7.00;;;6.40;;
9288;SDS011;4683;50.864;12.086;2022-07-25T18:25:10;7.20;;;6.60;;
9288;SDS011;4683;50.864;12.086;2022-07-25T18:27:45;7.33;;;6.73;;
9288;SDS011;4683;50.864;12.086;2022-07-25T18:30:15;8.07;;;7.30;;
9288;SDS011;4683;50.864;12.086;2022-07-25T18:32:45;6.97;;;6.37;;
9288;SDS011;4683;50.864;12.086;2022-07-25T18:35:13;8.33;;;6.57;;
9288;SDS011;4683;50.864;12.086;2022-07-25T18:37:43;9.17;;;7.27;;
9288;SDS011;4683;50.864;12.086;2022-07-25T18:40:16;8.57;;;7.73;;
9288;SDS011;4683;50.864;12.086;2022-07-25T18:42:51;9.53;;;8.63;;
9288;SDS011;4683;50.864;12.086;2022-07-25T18:45:20;9.10;;;6.97;;
9288;SDS011;4683;50.864;12.086;2022-07-25T19:49:39;12.43;;;8.10;;
9288;SDS011;4683;50.864;12.086;2022-07-25T19:52:07;8.23;;;7.37;;
9288;SDS011;4683;50.864;12.086;2022-07-25T19:54:37;10.60;;;6.80;;
9288;SDS011;4683;50.864;12.086;2022-07-25T19:57:06;8.57;;;7.73;;
9288;SDS011;4683;50.864;12.086;2022-07-25T19:59:34;7.90;;;7.10;;
9288;SDS011;4683;50.864;12.086;2022-07-25T20:02:03;9.23;;;8.33;;
9288;SDS011;4683;50.864;12.086;2022-07-25T20:04:32;7.20;;;6.60;;
9288;SDS011;4683;50.864;12.086;2022-07-25T20:07:02;7.87;;;7.17;;
9288;SDS011;4683;50.864;12.086;2022-07-25T20:09:30;7.60;;;6.90;;
9288;SDS011;4683;50.864;12.086;2022-07-25T20:12:00;7.67;;;6.90;;
9288;SDS011;4683;50.864;12.086;2022-07-25T20:14:29;8.23;;;7.53;;
9288;SDS011;4683;50.864;12.086;2022-07-25T20:16:57;7.67;;;6.97;;
9288;SDS011;4683;50.864;12.086;2022-07-25T20:19:26;14.97;;;8.30;;
9288;SDS011;4683;50.864;12.086;2022-07-25T20:21:55;10.40;;;9.33;;
9288;SDS011;4683;50.864;12.086;2022-07-25T20:24:24;13.93;;;7.87;;
9288;SDS011;4683;50.864;12.086;2022-07-25T20:26:53;10.33;;;7.73;;
9288;SDS011;4683;50.864;12.086;2022-07-25T20:29:22;10.63;;;8.23;;
9288;SDS011;4683;50.864;12.086;2022-07-25T20:31:51;9.23;;;8.30;;
9288;SDS011;4683;50.864;12.086;2022-07-25T20:34:20;9.40;;;7.93;;
9288;SDS011;4683;50.864;12.086;2022-07-25T20:36:48;8.20;;;7.50;;
9288;SDS011;4683;50.864;12.086;2022-07-25T20:39:18;8.13;;;7.33;;
9288;SDS011;4683;50.864;12.086;2022-07-25T20:41:48;10.87;;;7.13;;
9288;SDS011;4683;50.864;12.086;2022-07-25T20:44:16;8.80;;;6.77;;
9288;SDS011;4683;50.864;12.086;2022-07-25T20:46:47;7.53;;;6.70;;
9288;SDS011;4683;50.864;12.086;2022-07-25T20:49:16;12.00;;;8.60;;
9288;SDS011;4683;50.864;12.086;2022-07-25T20:51:44;8.33;;;7.53;;
9288;SDS011;4683;50.864;12.086;2022-07-25T20:54:13;9.03;;;7.40;;
9288;SDS011;4683;50.864;12.086;2022-07-25T20:56:43;9.03;;;7.93;;
9288;SDS011;4683;50.864;12.086;2022-07-25T20:59:12;8.90;;;8.10;;
9288;SDS011;4683;50.864;12.086;2022-07-25T21:01:41;9.00;;;8.00;;
9288;SDS011;4683;50.864;12.086;2022-07-25T21:04:09;9.50;;;8.53;;
9288;SDS011;4683;50.864;12.086;2022-07-25T21:06:37;8.33;;;7.63;;
9288;SDS011;4683;50.864;12.086;2022-07-25T21:09:05;12.00;;;9.27;;
9288;SDS011;4683;50.864;12.086;2022-07-25T21:11:33;11.73;;;8.20;;
9288;SDS011;4683;50.864;12.086;2022-07-25T21:14:02;8.43;;;7.63;;
9288;SDS011;4683;50.864;12.086;2022-07-25T21:16:32;8.53;;;7.60;;
9288;SDS011;4683;50.864;12.086;2022-07-25T21:19:00;9.07;;;8.03;;
9288;SDS011;4683;50.864;12.086;2022-07-25T21:21:29;9.37;;;7.80;;
9288;SDS011;4683;50.864;12.086;2022-07-25T21:23:57;8.20;;;7.50;;
9288;SDS011;4683;50.864;12.086;2022-07-25T21:26:26;7.50;;;6.90;;
9288;SDS011;4683;50.864;12.086;2022-07-25T21:28:56;7.50;;;6.80;;
9288;SDS011;4683;50.864;12.086;2022-07-25T21:31:24;7.67;;;6.97;;
9288;SDS011;4683;50.864;12.086;2022-07-25T21:33:53;7.93;;;7.23;;
9288;SDS011;4683;50.864;12.086;2022-07-25T21:36:22;8.37;;;7.37;;
9288;SDS011;4683;50.864;12.086;2022-07-25T21:38:50;8.13;;;7.30;;
9288;SDS011;4683;50.864;12.086;2022-07-25T21:41:19;8.10;;;7.30;;
9288;SDS011;4683;50.864;12.086;2022-07-25T21:43:48;7.90;;;7.10;;
9288;SDS011;4683;50.864;12.086;2022-07-25T21:46:16;8.40;;;7.60;;
9288;SDS011;4683;50.864;12.086;2022-07-25T21:48:44;7.10;;;6.40;;
9288;SDS011;4683;50.864;12.086;2022-07-25T21:51:31;8.50;;;7.67;;
9288;SDS011;4683;50.864;12.086;2022-07-25T21:54:00;8.80;;;7.40;;
9288;SDS011;4683;50.864;12.086;2022-07-25T21:56:28;8.33;;;7.53;;
9288;SDS011;4683;50.864;12.086;2022-07-25T21:58:56;8.50;;;7.80;;
9288;SDS011;4683;50.864;12.086;2022-07-25T22:01:26;8.13;;;7.43;;
9288;SDS011;4683;50.864;12.086;2022-07-25T22:03:54;9.07;;;8.10;;
9288;SDS011;4683;50.864;12.086;2022-07-25T22:06:22;8.80;;;7.90;;
9288;SDS011;4683;50.864;12.086;2022-07-25T22:08:53;9.07;;;8.27;;
9288;SDS011;4683;50.864;12.086;2022-07-25T22:11:21;8.77;;;7.87;;
9288;SDS011;4683;50.864;12.086;2022-07-25T22:13:50;8.50;;;7.60;;
9288;SDS011;4683;50.864;12.086;2022-07-25T22:16:18;10.07;;;8.10;;
9288;SDS011;4683;50.864;12.086;2022-07-25T22:18:47;9.60;;;8.80;;
9288;SDS011;4683;50.864;12.086;2022-07-25T22:21:16;9.47;;;8.10;;
9288;SDS011;4683;50.864;12.086;2022-07-25T22:23:48;9.07;;;8.20;;